createdAt,value
2016-06-06T08:40:07.839Z,1013.96
2016-06-06T08:41:07.811Z,1014
2016-06-06T08:42:07.798Z,1013.96
2016-06-06T08:43:07.786Z,1014
2016-06-06T08:44:07.960Z,1014.05
2016-06-06T08:45:07.760Z,1014.07
2016-06-06T08:46:07.746Z,1014.09
2016-06-06T08:47:07.718Z,1014.09
2016-06-06T08:48:07.705Z,1014.16
2016-06-06T08:49:07.692Z,1014.09
2016-06-06T08:50:07.679Z,1014.16
2016-06-06T08:51:07.666Z,1014.12
2016-06-06T08:52:07.654Z,1014.13
2016-06-06T08:53:07.640Z,1014.11
2016-06-06T08:54:07.612Z,1014.08
2016-06-06T08:55:07.599Z,1014.13
2016-06-06T08:56:07.585Z,1014.12
2016-06-06T08:57:07.573Z,1014.13
2016-06-06T08:58:07.559Z,1014.17
2016-06-06T08:59:08.048Z,1014.12
2016-06-06T09:00:07.534Z,1014.14
2016-06-06T09:01:07.521Z,1014.12
2016-06-06T09:02:07.509Z,1014.1
2016-06-06T09:03:07.479Z,1014.12
2016-06-06T09:04:07.467Z,1014.12
2016-06-06T09:05:07.454Z,1014.12
2016-06-06T09:06:07.441Z,1014.12
2016-06-06T09:07:07.428Z,1014.08
2016-06-06T09:08:07.414Z,1014.11
2016-06-06T09:09:07.418Z,1014.1
2016-06-06T09:10:07.389Z,1014.08
2016-06-06T09:11:07.376Z,1014.15
2016-06-06T09:12:07.364Z,1014.15
2016-06-06T09:13:07.350Z,1014.13
2016-06-06T09:14:07.338Z,1014.12
2016-06-06T09:15:07.324Z,1014.15
2016-06-06T09:16:07.327Z,1014.14
2016-06-06T09:17:07.299Z,1014.15
2016-06-06T09:18:07.286Z,1014.12
2016-06-06T09:19:07.272Z,1014.13
2016-06-06T09:20:07.260Z,1014.16
2016-06-06T09:21:07.263Z,1014.16
2016-06-06T09:22:07.234Z,1014.14
2016-06-06T09:23:07.221Z,1014.14
2016-06-06T09:24:07.208Z,1014.16
2016-06-06T09:25:07.195Z,1014.18
2016-06-06T09:26:07.182Z,1014.17
2016-06-06T09:27:07.169Z,1014.12
2016-06-06T09:28:07.157Z,1014.18
2016-06-06T09:29:07.143Z,1014.13
2016-06-06T09:30:07.131Z,1014.11
2016-06-06T09:31:07.117Z,1014.13
2016-06-06T09:32:07.104Z,1014.16
2016-06-06T09:33:07.092Z,1014.11
2016-06-06T09:34:07.079Z,1014.17
2016-06-06T09:35:07.066Z,1014.12
2016-06-06T09:36:07.053Z,1014.17
2016-06-06T09:37:07.040Z,1014.13
2016-06-06T09:38:07.027Z,1014.15
2016-06-06T09:39:07.014Z,1014.2
2016-06-06T09:40:07.001Z,1014.18
2016-06-06T09:41:06.989Z,1014.13
2016-06-06T09:42:06.975Z,1014.11
2016-06-06T09:43:06.978Z,1014.08
2016-06-06T09:44:06.980Z,1014.08
2016-06-06T09:45:06.937Z,1014.08
2016-06-06T09:46:06.924Z,1014.12
2016-06-06T09:47:06.911Z,1014.11
2016-06-06T09:48:06.897Z,1014.04
2016-06-06T09:49:06.885Z,1014.09
2016-06-06T09:50:06.871Z,1014.04
2016-06-06T09:51:06.858Z,1014.09
2016-06-06T09:52:06.846Z,1014.07
2016-06-06T09:53:06.833Z,1014.05
2016-06-06T09:54:06.867Z,1014.07
2016-06-06T09:55:06.807Z,1014.04
2016-06-06T09:56:06.794Z,1014.05
2016-06-06T09:57:06.782Z,1014.03
2016-06-06T09:58:06.768Z,1014.03
2016-06-06T09:59:07.146Z,1014.01
2016-06-06T10:00:06.727Z,1014.02
2016-06-06T10:01:06.730Z,1014
2016-06-06T10:02:06.701Z,1014.03
2016-06-06T10:03:06.688Z,1014.02
2016-06-06T10:04:06.675Z,1013.99
2016-06-06T10:05:06.662Z,1013.97
2016-06-06T10:06:06.649Z,1013.96
2016-06-06T10:07:06.637Z,1013.99
2016-06-06T10:08:06.623Z,1014.01
2016-06-06T10:09:06.611Z,1014
2016-06-06T10:10:06.597Z,1014.03
2016-06-06T10:11:06.585Z,1014.01
2016-06-06T10:12:06.572Z,1014.03
2016-06-06T10:13:06.542Z,1013.99
2016-06-06T10:14:06.531Z,1013.95
2016-06-06T10:15:06.517Z,1013.99
2016-06-06T10:16:06.505Z,1013.96
2016-06-06T10:17:06.489Z,1013.95
2016-06-06T10:18:06.475Z,1013.98
2016-06-06T10:19:06.463Z,1013.93
2016-06-06T10:20:06.450Z,1013.88
2016-06-06T10:21:06.437Z,1013.93
2016-06-06T10:22:06.424Z,1013.93
2016-06-06T10:23:06.411Z,1013.96
2016-06-06T10:24:06.399Z,1013.92
2016-06-06T10:25:06.369Z,1013.96
2016-06-06T10:26:06.357Z,1013.92
2016-06-06T10:27:06.344Z,1013.91
2016-06-06T10:28:06.330Z,1013.89
2016-06-06T10:29:06.317Z,1013.92
2016-06-06T10:30:06.305Z,1013.83
2016-06-06T10:31:06.292Z,1013.88
2016-06-06T10:32:06.263Z,1013.85
2016-06-06T10:33:06.250Z,1013.88
2016-06-06T10:34:06.237Z,1013.85
2016-06-06T10:35:06.224Z,1013.85
2016-06-06T10:36:06.212Z,1013.84
2016-06-06T10:37:06.214Z,1013.82
2016-06-06T10:38:06.186Z,1013.82
2016-06-06T10:39:06.172Z,1013.86
2016-06-06T10:40:06.160Z,1013.84
2016-06-06T10:41:06.131Z,1013.85
2016-06-06T10:42:06.118Z,1013.84
2016-06-06T10:43:06.120Z,1013.84
2016-06-06T10:44:06.092Z,1013.85
2016-06-06T10:45:06.455Z,1013.85
2016-06-06T10:46:06.067Z,1013.84
2016-06-06T10:47:06.053Z,1013.83
2016-06-06T10:48:06.041Z,1013.84
2016-06-06T10:49:06.028Z,1013.83
2016-06-06T10:50:06.014Z,1013.85
2016-06-06T10:51:06.002Z,1013.8
2016-06-06T10:52:05.974Z,1013.79
2016-06-06T10:53:05.961Z,1013.83
2016-06-06T10:54:05.947Z,1013.78
2016-06-06T10:55:05.935Z,1013.8
2016-06-06T10:56:05.922Z,1013.73
2016-06-06T10:57:05.908Z,1013.74
2016-06-06T10:58:05.896Z,1013.73
2016-06-06T10:59:05.882Z,1013.75
2016-06-06T11:00:05.854Z,1013.74
2016-06-06T11:01:05.841Z,1013.75
2016-06-06T11:02:05.829Z,1013.72
2016-06-06T11:03:05.815Z,1013.71
2016-06-06T11:04:05.802Z,1013.69
2016-06-06T11:05:05.790Z,1013.68
2016-06-06T11:06:05.777Z,1013.67
2016-06-06T11:07:05.765Z,1013.67
2016-06-06T11:08:05.751Z,1013.75
2016-06-06T11:09:05.737Z,1013.73
2016-06-06T11:10:05.709Z,1013.69
2016-06-06T11:11:05.712Z,1013.69
2016-06-06T11:12:05.684Z,1013.68
2016-06-06T11:13:05.670Z,1013.66
2016-06-06T11:14:05.658Z,1013.66
2016-06-06T11:15:05.645Z,1013.62
2016-06-06T11:16:05.631Z,1013.65
2016-06-06T11:17:05.619Z,1013.69
2016-06-06T11:18:05.605Z,1013.69
2016-06-06T11:19:05.578Z,1013.64
2016-06-06T11:20:05.564Z,1013.65
2016-06-06T11:21:05.552Z,1013.65
2016-06-06T11:22:05.539Z,1013.63
2016-06-06T11:23:05.525Z,1013.65
2016-06-06T11:24:05.513Z,1013.62
2016-06-06T11:25:05.500Z,1013.63
2016-06-06T11:26:05.486Z,1013.63
2016-06-06T11:27:05.489Z,1013.65
2016-06-06T11:28:05.461Z,1013.6
2016-06-06T11:29:05.448Z,1013.64
2016-06-06T11:30:05.419Z,1013.64
2016-06-06T11:31:05.422Z,1013.67
2016-06-06T11:32:05.393Z,1013.68
2016-06-06T11:33:05.380Z,1013.66
2016-06-06T11:34:05.368Z,1013.63
2016-06-06T11:35:05.370Z,1013.66
2016-06-06T11:36:05.342Z,1013.65
2016-06-06T11:37:05.329Z,1013.58
2016-06-06T11:38:05.316Z,1013.65
2016-06-06T11:39:05.303Z,1013.59
2016-06-06T11:40:05.290Z,1013.62
2016-06-06T11:41:05.261Z,1013.6
2016-06-06T11:42:05.264Z,1013.56
2016-06-06T11:43:05.251Z,1013.57
2016-06-06T11:44:05.457Z,1013.55
2016-06-06T11:45:05.209Z,1013.54
2016-06-06T11:46:05.197Z,1013.52
2016-06-06T11:47:05.184Z,1013.59
2016-06-06T11:48:05.170Z,1013.53
2016-06-06T11:49:05.158Z,1013.52
2016-06-06T11:50:05.145Z,1013.55
2016-06-06T11:51:05.133Z,1013.57
2016-06-06T11:52:05.119Z,1013.51
2016-06-06T11:53:05.106Z,1013.58
2016-06-06T11:54:05.094Z,1013.53
2016-06-06T11:55:05.064Z,1013.51
2016-06-06T11:56:05.067Z,1013.49
2016-06-06T11:57:05.039Z,1013.46
2016-06-06T11:58:05.026Z,1013.47
2016-06-06T11:59:05.013Z,1013.45
2016-06-06T12:00:04.999Z,1013.44
2016-06-06T12:01:04.988Z,1013.46
2016-06-06T12:02:04.974Z,1013.44
2016-06-06T12:03:04.960Z,1013.48
2016-06-06T12:04:04.949Z,1013.43
2016-06-06T12:05:04.936Z,1013.44
2016-06-06T12:06:04.923Z,1013.42
2016-06-06T12:07:04.909Z,1013.45
2016-06-06T12:08:04.882Z,1013.42
2016-06-06T12:09:04.884Z,1013.38
2016-06-06T12:10:04.854Z,1013.38
2016-06-06T12:11:04.843Z,1013.4
2016-06-06T12:12:04.829Z,1013.37
2016-06-06T12:13:04.817Z,1013.36
2016-06-06T12:14:04.804Z,1013.41
2016-06-06T12:15:04.790Z,1013.38
2016-06-06T12:16:04.778Z,1013.34
2016-06-06T12:17:04.765Z,1013.32
2016-06-06T12:18:04.751Z,1013.26
2016-06-06T12:19:04.739Z,1013.27
2016-06-06T12:20:04.726Z,1013.24
2016-06-06T12:21:04.713Z,1013.25
2016-06-06T12:22:04.700Z,1013.21
2016-06-06T12:23:04.687Z,1013.22
2016-06-06T12:24:04.658Z,1013.19
2016-06-06T12:25:04.661Z,1013.18
2016-06-06T12:26:04.632Z,1013.16
2016-06-06T12:27:04.619Z,1013.18
2016-06-06T12:28:04.607Z,1013.16
2016-06-06T12:29:04.593Z,1013.16
2016-06-06T12:30:04.596Z,1013.11
2016-06-06T12:31:04.568Z,1013.1
2016-06-06T12:32:04.555Z,1013.1
2016-06-06T12:33:04.542Z,1013.05
2016-06-06T12:34:04.544Z,1013.06
2016-06-06T12:35:04.515Z,1013.04
2016-06-06T12:36:04.504Z,1013.03
2016-06-06T12:37:04.490Z,1013.04
2016-06-06T12:38:04.477Z,1013.02
2016-06-06T12:39:04.464Z,1013.02
2016-06-06T12:40:04.451Z,1013.02
2016-06-06T12:41:04.454Z,1012.96
2016-06-06T12:42:04.410Z,1012.97
2016-06-06T12:43:04.412Z,1013.04
2016-06-06T12:44:04.432Z,1013.01
2016-06-06T12:45:04.371Z,1013.02
2016-06-06T12:46:04.358Z,1013.02
2016-06-06T12:47:04.345Z,1013.05
2016-06-06T12:48:04.332Z,1013.08
2016-06-06T12:49:04.320Z,1013.04
2016-06-06T12:50:04.306Z,1013.06
2016-06-06T12:51:04.294Z,1013.08
2016-06-06T12:52:04.281Z,1013.13
2016-06-06T12:53:04.267Z,1013.14
2016-06-06T12:54:04.255Z,1013.18
2016-06-06T12:55:04.242Z,1013.17
2016-06-06T12:56:04.229Z,1013.19
2016-06-06T12:57:04.216Z,1013.18
2016-06-06T12:58:04.202Z,1013.19
2016-06-06T12:59:04.190Z,1013.23
2016-06-06T13:00:04.177Z,1013.26
2016-06-06T13:01:04.164Z,1013.27
2016-06-06T13:02:04.152Z,1013.24
2016-06-06T13:03:04.138Z,1013.22
2016-06-06T13:04:04.125Z,1013.24
2016-06-06T13:05:04.112Z,1013.23
2016-06-06T13:06:04.100Z,1013.25
2016-06-06T13:07:04.087Z,1013.28
2016-06-06T13:08:04.057Z,1013.26
2016-06-06T13:09:04.046Z,1013.26
2016-06-06T13:10:04.032Z,1013.28
2016-06-06T13:11:04.019Z,1013.26
2016-06-06T13:12:04.006Z,1013.22
2016-06-06T13:13:03.993Z,1013.26
2016-06-06T13:14:04.715Z,1013.23
2016-06-06T13:15:03.968Z,1013.26
2016-06-06T13:16:03.954Z,1013.23
2016-06-06T13:17:03.942Z,1013.26
2016-06-06T13:18:03.928Z,1013.24
2016-06-06T13:19:03.915Z,1013.27
2016-06-06T13:20:03.903Z,1013.27
2016-06-06T13:21:03.890Z,1013.24
2016-06-06T13:22:03.877Z,1013.25
2016-06-06T13:23:03.864Z,1013.19
2016-06-06T13:24:03.851Z,1013.18
2016-06-06T13:25:03.838Z,1013.18
2016-06-06T13:26:03.825Z,1013.2
2016-06-06T13:27:03.812Z,1013.2
2016-06-06T13:28:03.799Z,1013.18
2016-06-06T13:29:04.083Z,1013.27
2016-06-06T13:30:03.774Z,1013.17
2016-06-06T13:31:03.760Z,1013.18
2016-06-06T13:32:03.747Z,1013.23
2016-06-06T13:33:03.735Z,1013.19
2016-06-06T13:34:03.721Z,1013.21
2016-06-06T13:35:03.708Z,1013.18
2016-06-06T13:36:03.711Z,1013.17
2016-06-06T13:37:03.699Z,1013.18
2016-06-06T13:38:03.670Z,1013.18
2016-06-06T13:39:03.657Z,1013.21
2016-06-06T13:40:03.644Z,1013.15
2016-06-06T13:41:03.646Z,1013.18
2016-06-06T13:42:03.634Z,1013.18
2016-06-06T13:43:03.636Z,1013.16
2016-06-06T13:44:03.593Z,1013.2
2016-06-06T13:45:03.596Z,1013.18
2016-06-06T13:46:03.613Z,1013.14
2016-06-06T13:47:03.553Z,1013.13
2016-06-06T13:48:03.541Z,1013.15
2016-06-06T13:49:03.543Z,1013.16
2016-06-06T13:50:03.514Z,1013.12
2016-06-06T13:51:03.501Z,1013.09
2016-06-06T13:52:03.489Z,1013.09
2016-06-06T13:53:03.476Z,1013.12
2016-06-06T13:54:03.463Z,1013.1
2016-06-06T13:55:03.450Z,1013.1
2016-06-06T13:56:03.437Z,1013.14
2016-06-06T13:57:03.424Z,1013.1
2016-06-06T13:58:03.411Z,1013.06
2016-06-06T13:59:04.319Z,1013.06
2016-06-06T14:00:03.916Z,1013.06
2016-06-06T14:01:03.372Z,1013.02
2016-06-06T14:02:03.360Z,1013.01
2016-06-06T14:03:03.347Z,1012.99
2016-06-06T14:04:03.333Z,1013.03
2016-06-06T14:05:03.321Z,1013
2016-06-06T14:06:03.308Z,1013
2016-06-06T14:07:03.295Z,1012.98
2016-06-06T14:08:03.282Z,1012.99
2016-06-06T14:09:03.269Z,1013.04
2016-06-06T14:10:03.256Z,1012.96
2016-06-06T14:11:03.243Z,1012.96
2016-06-06T14:12:03.230Z,1012.99
2016-06-06T14:13:03.233Z,1012.97
2016-06-06T14:14:03.470Z,1012.96
2016-06-06T14:15:03.191Z,1012.96
2016-06-06T14:16:03.179Z,1012.96
2016-06-06T14:17:03.166Z,1012.97
2016-06-06T14:18:03.153Z,1012.98
2016-06-06T14:19:03.139Z,1012.96
2016-06-06T14:20:03.142Z,1012.92
2016-06-06T14:21:03.114Z,1012.9
2016-06-06T14:22:03.116Z,1012.9
2016-06-06T14:23:03.087Z,1012.87
2016-06-06T14:24:03.075Z,1012.89
2016-06-06T14:25:03.062Z,1012.83
2016-06-06T14:26:03.050Z,1012.87
2016-06-06T14:27:03.036Z,1012.87
2016-06-06T14:28:03.038Z,1012.85
2016-06-06T14:29:03.026Z,1012.86
2016-06-06T14:30:02.997Z,1012.88
2016-06-06T14:31:02.999Z,1012.87
2016-06-06T14:32:02.987Z,1012.91
2016-06-06T14:33:02.958Z,1012.91
2016-06-06T14:34:02.946Z,1012.89
2016-06-06T14:35:02.948Z,1012.93
2016-06-06T14:36:02.935Z,1012.89
2016-06-06T14:37:02.922Z,1012.87
2016-06-06T14:38:02.910Z,1012.86
2016-06-06T14:39:02.896Z,1012.88
2016-06-06T14:40:02.884Z,1012.9
2016-06-06T14:41:02.871Z,1012.87
2016-06-06T14:42:02.857Z,1012.89
2016-06-06T14:43:02.845Z,1012.9
2016-06-06T14:44:02.832Z,1012.9
2016-06-06T14:45:03.772Z,1012.91
2016-06-06T14:46:02.806Z,1012.9
2016-06-06T14:47:02.793Z,1012.87
2016-06-06T14:48:02.779Z,1012.9
2016-06-06T14:49:02.768Z,1012.87
2016-06-06T14:50:02.754Z,1012.88
2016-06-06T14:51:02.741Z,1012.86
2016-06-06T14:52:02.728Z,1012.87
2016-06-06T14:53:02.715Z,1012.85
2016-06-06T14:54:02.702Z,1012.88
2016-06-06T14:55:02.689Z,1012.9
2016-06-06T14:56:02.676Z,1012.89
2016-06-06T14:57:02.664Z,1012.87
2016-06-06T14:58:02.650Z,1012.86
2016-06-06T14:59:02.639Z,1012.84
2016-06-06T15:00:03.172Z,1012.83
2016-06-06T15:01:02.612Z,1012.84
2016-06-06T15:02:02.599Z,1012.85
2016-06-06T15:03:02.586Z,1012.83
2016-06-06T15:04:02.573Z,1012.82
2016-06-06T15:05:02.560Z,1012.84
2016-06-06T15:06:02.547Z,1012.83
2016-06-06T15:07:02.535Z,1012.85
2016-06-06T15:08:02.521Z,1012.87
2016-06-06T15:09:02.509Z,1012.88
2016-06-06T15:10:02.496Z,1012.89
2016-06-06T15:11:02.482Z,1012.9
2016-06-06T15:12:02.469Z,1012.88
2016-06-06T15:13:02.457Z,1012.86
2016-06-06T15:14:02.443Z,1012.89
2016-06-06T15:15:02.431Z,1012.89
2016-06-06T15:16:02.418Z,1012.89
2016-06-06T15:17:02.404Z,1012.85
2016-06-06T15:18:02.392Z,1012.85
2016-06-06T15:19:02.379Z,1012.84
2016-06-06T15:20:02.366Z,1012.84
2016-06-06T15:21:02.354Z,1012.86
2016-06-06T15:22:02.340Z,1012.87
2016-06-06T15:23:02.328Z,1012.87
2016-06-06T15:24:02.315Z,1012.88
2016-06-06T15:25:02.302Z,1012.83
2016-06-06T15:26:02.289Z,1012.88
2016-06-06T15:27:02.275Z,1012.87
2016-06-06T15:28:02.294Z,1012.86
2016-06-06T15:29:02.250Z,1012.85
2016-06-06T15:30:02.237Z,1012.85
2016-06-06T15:31:02.240Z,1012.83
2016-06-06T15:32:02.211Z,1012.85
2016-06-06T15:33:02.198Z,1012.81
2016-06-06T15:34:02.185Z,1012.87
2016-06-06T15:35:02.173Z,1012.83
2016-06-06T15:36:02.159Z,1012.82
2016-06-06T15:37:02.147Z,1012.84
2016-06-06T15:38:02.149Z,1012.85
2016-06-06T15:39:02.121Z,1012.83
2016-06-06T15:40:02.108Z,1012.8
2016-06-06T15:41:02.094Z,1012.77
2016-06-06T15:42:02.082Z,1012.76
2016-06-06T15:43:02.068Z,1012.8
2016-06-06T15:44:02.055Z,1012.73
2016-06-06T15:45:02.043Z,1012.72
2016-06-06T15:46:02.030Z,1012.71
2016-06-06T15:47:02.018Z,1012.7
2016-06-06T15:48:02.004Z,1012.67
2016-06-06T15:49:01.991Z,1012.66
2016-06-06T15:50:01.994Z,1012.66
2016-06-06T15:51:01.966Z,1012.63
2016-06-06T15:52:01.968Z,1012.66
2016-06-06T15:53:01.940Z,1012.64
2016-06-06T15:54:01.926Z,1012.58
2016-06-06T15:55:01.929Z,1012.61
2016-06-06T15:56:01.917Z,1012.59
2016-06-06T15:57:01.903Z,1012.53
2016-06-06T15:58:01.890Z,1012.54
2016-06-06T15:59:01.878Z,1012.55
2016-06-06T16:00:01.865Z,1012.5
2016-06-06T16:01:01.851Z,1012.49
2016-06-06T16:02:01.839Z,1012.48
2016-06-06T16:03:01.826Z,1012.48
2016-06-06T16:04:01.813Z,1012.47
2016-06-06T16:05:01.800Z,1012.52
2016-06-06T16:06:01.787Z,1012.5
2016-06-06T16:07:01.774Z,1012.53
2016-06-06T16:08:01.761Z,1012.47
2016-06-06T16:09:01.748Z,1012.51
2016-06-06T16:10:01.736Z,1012.45
2016-06-06T16:11:01.722Z,1012.47
2016-06-06T16:12:01.710Z,1012.48
2016-06-06T16:13:01.697Z,1012.48
2016-06-06T16:14:01.684Z,1012.43
2016-06-06T16:15:01.671Z,1012.45
2016-06-06T16:16:01.658Z,1012.41
2016-06-06T16:17:01.644Z,1012.41
2016-06-06T16:18:01.632Z,1012.45
2016-06-06T16:19:01.635Z,1012.43
2016-06-06T16:20:01.607Z,1012.45
2016-06-06T16:21:01.593Z,1012.49
2016-06-06T16:22:01.596Z,1012.47
2016-06-06T16:23:01.583Z,1012.49
2016-06-06T16:24:01.570Z,1012.46
2016-06-06T16:25:01.557Z,1012.49
2016-06-06T16:26:01.544Z,1012.5
2016-06-06T16:27:01.531Z,1012.51
2016-06-06T16:28:01.518Z,1012.46
2016-06-06T16:29:01.506Z,1012.54
2016-06-06T16:30:01.508Z,1012.52
2016-06-06T16:31:01.479Z,1012.53
2016-06-06T16:32:01.467Z,1012.56
2016-06-06T16:33:01.453Z,1012.59
2016-06-06T16:34:01.440Z,1012.58
2016-06-06T16:35:01.443Z,1012.61
2016-06-06T16:36:01.415Z,1012.62
2016-06-06T16:37:01.417Z,1012.64
2016-06-06T16:38:01.405Z,1012.61
2016-06-06T16:39:01.392Z,1012.61
2016-06-06T16:40:01.378Z,1012.6
2016-06-06T16:41:01.366Z,1012.59
2016-06-06T16:42:01.353Z,1012.58
2016-06-06T16:43:01.344Z,1012.62
2016-06-06T16:44:01.337Z,1012.58
2016-06-06T16:45:01.328Z,1012.61
2016-06-06T16:46:01.321Z,1012.61
2016-06-06T16:47:01.313Z,1012.59
2016-06-06T16:48:01.302Z,1012.61
2016-06-06T16:49:01.291Z,1012.67
2016-06-06T16:50:01.278Z,1012.66
2016-06-06T16:51:01.267Z,1012.68
2016-06-06T16:52:01.256Z,1012.65
2016-06-06T16:53:01.244Z,1012.68
2016-06-06T16:54:01.247Z,1012.66
2016-06-06T16:55:01.220Z,1012.65
2016-06-06T16:56:01.223Z,1012.68
2016-06-06T16:57:01.211Z,1012.65
2016-06-06T16:58:01.199Z,1012.66
2016-06-06T16:59:01.185Z,1012.62
2016-06-06T17:00:01.173Z,1012.64
2016-06-06T17:01:01.161Z,1012.57
2016-06-06T17:02:01.148Z,1012.56
2016-06-06T17:03:01.136Z,1012.6
2016-06-06T17:04:01.122Z,1012.6
2016-06-06T17:05:01.109Z,1012.6
2016-06-06T17:06:01.096Z,1012.6
2016-06-06T17:07:01.084Z,1012.6
2016-06-06T17:08:01.086Z,1012.55
2016-06-06T17:09:01.073Z,1012.56
2016-06-06T17:10:01.061Z,1012.55
2016-06-06T17:11:01.032Z,1012.51
2016-06-06T17:12:01.035Z,1012.53
2016-06-06T17:13:01.022Z,1012.52
2016-06-06T17:14:01.008Z,1012.49
2016-06-06T17:15:00.996Z,1012.49
2016-06-06T17:16:00.983Z,1012.48
2016-06-06T17:17:00.969Z,1012.48
2016-06-06T17:18:00.957Z,1012.46
2016-06-06T17:19:00.944Z,1012.42
2016-06-06T17:20:00.931Z,1012.47
2016-06-06T17:21:00.918Z,1012.46
2016-06-06T17:22:00.905Z,1012.44
2016-06-06T17:23:00.893Z,1012.46
2016-06-06T17:24:00.879Z,1012.43
2016-06-06T17:25:00.866Z,1012.4
2016-06-06T17:26:00.853Z,1012.41
2016-06-06T17:27:00.840Z,1012.38
2016-06-06T17:28:00.828Z,1012.43
2016-06-06T17:29:00.814Z,1012.39
2016-06-06T17:30:00.802Z,1012.38
2016-06-06T17:31:00.789Z,1012.38
2016-06-06T17:32:00.775Z,1012.4
2016-06-06T17:33:00.779Z,1012.36
2016-06-06T17:34:00.765Z,1012.34
2016-06-06T17:35:00.736Z,1012.36
2016-06-06T17:36:00.724Z,1012.34
2016-06-06T17:37:00.727Z,1012.36
2016-06-06T17:38:00.713Z,1012.37
2016-06-06T17:39:00.686Z,1012.37
2016-06-06T17:40:00.688Z,1012.34
2016-06-06T17:41:00.674Z,1012.36
2016-06-06T17:42:00.662Z,1012.4
2016-06-06T17:43:00.649Z,1012.38
2016-06-06T17:44:00.636Z,1012.37
2016-06-06T17:45:00.669Z,1012.38
2016-06-06T17:46:00.611Z,1012.38
2016-06-06T17:47:00.597Z,1012.37
2016-06-06T17:48:00.584Z,1012.39
2016-06-06T17:49:00.572Z,1012.39
2016-06-06T17:50:00.558Z,1012.34
2016-06-06T17:51:00.545Z,1012.38
2016-06-06T17:52:00.532Z,1012.43
2016-06-06T17:53:00.520Z,1012.45
2016-06-06T17:54:00.507Z,1012.46
2016-06-06T17:55:00.493Z,1012.47
2016-06-06T17:56:00.481Z,1012.46
2016-06-06T17:57:00.468Z,1012.5
2016-06-06T17:58:00.454Z,1012.47
2016-06-06T17:59:00.442Z,1012.49
2016-06-06T18:00:00.429Z,1012.49
2016-06-06T18:01:00.417Z,1012.48
2016-06-06T18:02:00.403Z,1012.46
2016-06-06T18:03:00.390Z,1012.5
2016-06-06T18:04:00.378Z,1012.53
2016-06-06T18:05:00.364Z,1012.52
2016-06-06T18:06:00.351Z,1012.52
2016-06-06T18:07:00.339Z,1012.58
2016-06-06T18:08:00.325Z,1012.55
2016-06-06T18:09:00.313Z,1012.58
2016-06-06T18:10:00.300Z,1012.59
2016-06-06T18:11:00.286Z,1012.62
2016-06-06T18:12:00.274Z,1012.62
2016-06-06T18:13:00.261Z,1012.64
2016-06-06T18:14:00.233Z,1012.63
2016-06-06T18:15:00.219Z,1012.61
2016-06-06T18:16:00.222Z,1012.68
2016-06-06T18:17:00.194Z,1012.67
2016-06-06T18:18:00.180Z,1012.67
2016-06-06T18:19:00.168Z,1012.68
2016-06-06T18:20:00.155Z,1012.65
2016-06-06T18:21:00.142Z,1012.63
2016-06-06T18:22:00.129Z,1012.67
2016-06-06T18:23:00.116Z,1012.64
2016-06-06T18:24:00.103Z,1012.69
2016-06-06T18:25:00.091Z,1012.67
2016-06-06T18:26:00.076Z,1012.68
2016-06-06T18:27:00.064Z,1012.72
2016-06-06T18:28:00.051Z,1012.76
2016-06-06T18:29:00.038Z,1012.74
2016-06-06T18:30:00.290Z,1012.73
2016-06-06T18:31:00.013Z,1012.74
2016-06-06T18:32:00.000Z,1012.77
2016-06-06T18:32:59.970Z,1012.77
2016-06-06T18:33:59.958Z,1012.76
2016-06-06T18:34:59.961Z,1012.77
2016-06-06T18:35:59.932Z,1012.79
2016-06-06T18:36:59.919Z,1012.77
2016-06-06T18:37:59.906Z,1012.78
2016-06-06T18:38:59.894Z,1012.78
2016-06-06T18:39:59.880Z,1012.75
2016-06-06T18:40:59.867Z,1012.77
2016-06-06T18:41:59.855Z,1012.76
2016-06-06T18:42:59.841Z,1012.77
2016-06-06T18:43:59.829Z,1012.82
2016-06-06T18:44:59.816Z,1012.83
2016-06-06T18:45:59.803Z,1012.8
2016-06-06T18:46:59.790Z,1012.83
2016-06-06T18:47:59.761Z,1012.8
2016-06-06T18:48:59.764Z,1012.83
2016-06-06T18:49:59.735Z,1012.81
2016-06-06T18:50:59.722Z,1012.83
2016-06-06T18:51:59.710Z,1012.89
2016-06-06T18:52:59.697Z,1012.88
2016-06-06T18:53:59.684Z,1012.88
2016-06-06T18:54:59.670Z,1012.9
2016-06-06T18:55:59.658Z,1012.87
2016-06-06T18:56:59.645Z,1012.86
2016-06-06T18:57:59.632Z,1012.89
2016-06-06T18:58:59.619Z,1012.91
2016-06-06T18:59:59.590Z,1012.88
2016-06-06T19:00:59.577Z,1012.88
2016-06-06T19:01:59.580Z,1012.87
2016-06-06T19:02:59.551Z,1012.89
2016-06-06T19:03:59.539Z,1012.87
2016-06-06T19:04:59.525Z,1012.89
2016-06-06T19:05:59.512Z,1012.9
2016-06-06T19:06:59.500Z,1012.89
2016-06-06T19:07:59.487Z,1012.92
2016-06-06T19:08:59.474Z,1012.95
2016-06-06T19:09:59.461Z,1012.96
2016-06-06T19:10:59.448Z,1012.98
2016-06-06T19:11:59.420Z,1012.99
2016-06-06T19:12:59.406Z,1012.99
2016-06-06T19:13:59.394Z,1012.97
2016-06-06T19:14:59.380Z,1013
2016-06-06T19:15:59.369Z,1013
2016-06-06T19:16:59.949Z,1013
2016-06-06T19:17:59.342Z,1013.01
2016-06-06T19:18:59.313Z,1013
2016-06-06T19:19:59.300Z,1013.04
2016-06-06T19:20:59.288Z,1013.02
2016-06-06T19:21:59.275Z,1013.01
2016-06-06T19:22:59.262Z,1013
2016-06-06T19:23:59.249Z,1013
2016-06-06T19:24:59.235Z,1013.04
2016-06-06T19:25:59.223Z,1013.04
2016-06-06T19:26:59.210Z,1013.04
2016-06-06T19:27:59.181Z,1013.07
2016-06-06T19:28:59.168Z,1013.07
2016-06-06T19:29:59.156Z,1013.06
2016-06-06T19:30:59.143Z,1013.08
2016-06-06T19:31:59.129Z,1013.1
2016-06-06T19:32:59.117Z,1013.07
2016-06-06T19:33:59.104Z,1013.09
2016-06-06T19:34:59.075Z,1013.07
2016-06-06T19:35:59.062Z,1013.06
2016-06-06T19:36:59.050Z,1013.12
2016-06-06T19:37:59.037Z,1013.1
2016-06-06T19:38:59.023Z,1013.08
2016-06-06T19:39:59.011Z,1013.1
2016-06-06T19:40:58.998Z,1013.12
2016-06-06T19:41:58.984Z,1013.11
2016-06-06T19:42:58.972Z,1013.13
2016-06-06T19:43:58.959Z,1013.13
2016-06-06T19:44:58.930Z,1013.1
2016-06-06T19:45:58.917Z,1013.14
2016-06-06T19:46:58.905Z,1013.12
2016-06-06T19:47:58.891Z,1013.17
2016-06-06T19:48:59.332Z,1013.17
2016-06-06T19:49:58.849Z,1013.17
2016-06-06T19:50:58.837Z,1013.21
2016-06-06T19:51:58.824Z,1013.2
2016-06-06T19:52:58.811Z,1013.23
2016-06-06T19:53:58.798Z,1013.29
2016-06-06T19:54:58.785Z,1013.28
2016-06-06T19:55:58.757Z,1013.31
2016-06-06T19:56:58.744Z,1013.32
2016-06-06T19:57:58.731Z,1013.3
2016-06-06T19:58:58.718Z,1013.31
2016-06-06T19:59:58.704Z,1013.29
2016-06-06T20:00:58.692Z,1013.28
2016-06-06T20:01:58.663Z,1013.31
2016-06-06T20:02:58.650Z,1013.3
2016-06-06T20:03:58.637Z,1013.31
2016-06-06T20:04:58.626Z,1013.35
2016-06-06T20:05:58.611Z,1013.34
2016-06-06T20:06:58.599Z,1013.34
2016-06-06T20:07:58.586Z,1013.33
2016-06-06T20:08:58.557Z,1013.36
2016-06-06T20:09:58.544Z,1013.34
2016-06-06T20:10:58.531Z,1013.36
2016-06-06T20:11:58.519Z,1013.33
2016-06-06T20:12:58.505Z,1013.35
2016-06-06T20:13:58.477Z,1013.34
2016-06-06T20:14:58.464Z,1013.3
2016-06-06T20:15:58.450Z,1013.37
2016-06-06T20:16:58.438Z,1013.37
2016-06-06T20:17:58.425Z,1013.35
2016-06-06T20:18:58.413Z,1013.39
2016-06-06T20:19:58.383Z,1013.38
2016-06-06T20:20:58.903Z,1013.4
2016-06-06T20:21:58.358Z,1013.42
2016-06-06T20:22:58.344Z,1013.41
2016-06-06T20:23:58.332Z,1013.43
2016-06-06T20:24:58.304Z,1013.4
2016-06-06T20:25:58.290Z,1013.41
2016-06-06T20:26:58.277Z,1013.43
2016-06-06T20:27:58.265Z,1013.38
2016-06-06T20:28:58.252Z,1013.4
2016-06-06T20:29:58.223Z,1013.43
2016-06-06T20:30:58.210Z,1013.39
2016-06-06T20:31:58.198Z,1013.43
2016-06-06T20:32:58.185Z,1013.42
2016-06-06T20:33:58.172Z,1013.39
2016-06-06T20:34:58.581Z,1013.39
2016-06-06T20:35:58.129Z,1013.4
2016-06-06T20:36:58.117Z,1013.37
2016-06-06T20:37:58.104Z,1013.38
2016-06-06T20:38:58.091Z,1013.36
2016-06-06T20:39:58.078Z,1013.38
2016-06-06T20:40:58.050Z,1013.35
2016-06-06T20:41:58.037Z,1013.37
2016-06-06T20:42:58.023Z,1013.39
2016-06-06T20:43:58.011Z,1013.38
2016-06-06T20:44:57.982Z,1013.38
2016-06-06T20:45:57.985Z,1013.41
2016-06-06T20:46:57.972Z,1013.42
2016-06-06T20:47:57.944Z,1013.41